Time;durP1;ratioP1;P1;durP2;ratioP2;P2;SDS_P1;SDS_P2;PMS_P1;PMS_P2;Temp;Humidity;BMP_temperature;BMP_pressure;BME280_temperature;BME280_humidity;BME280_pressure;Samples;Min_cycle;Max_cycle;Signal;HPM_P1;HPM_P2
2022/02/12 00:01:58;;;;;;;;;;;1.80;75.00;;;-0.15;75.30;97579.03;4963324;28;19925;-68
2022/02/12 00:04:24;;;;;;;;;;;1.70;75.10;;;-0.18;74.69;97571.47;4964885;28;19977;-67
2022/02/12 00:06:49;;;;;;;;;;;1.70;75.20;;;-0.19;74.47;97567.22;4943566;28;20374;-68
2022/02/12 00:09:15;;;;;;;;;;;1.70;75.20;;;-0.18;74.38;97566.28;4952396;28;19918;-67
2022/02/12 00:11:41;;;;;;;;;;;1.70;75.10;;;-0.22;75.40;97566.56;4946468;28;19929;-67
2022/02/12 00:14:06;;;;;;;;;;;1.70;75.30;;;-0.23;75.18;97565.69;4949185;28;19926;-65
2022/02/12 00:16:32;;;;;;;;;;;1.60;75.30;;;-0.28;75.54;97567.72;4950550;28;19918;-68
2022/02/12 00:18:58;;;;;;;;;;;1.70;75.30;;;-0.30;75.35;97564.38;4932929;29;19922;-66
2022/02/12 00:21:24;;;;;;;;;;;1.60;75.60;;;-0.32;75.18;97568.81;4932706;29;20457;-65
2022/02/12 00:23:50;;;;;;;;;;;1.60;75.70;;;-0.33;75.30;97567.13;4933959;29;19931;-66
2022/02/12 00:26:16;;;;;;;;;;;1.60;75.70;;;-0.34;75.85;97565.47;4949858;28;19918;-67
2022/02/12 00:28:42;;;;;;;;;;;1.60;75.70;;;-0.34;75.82;97568.06;4950207;28;19945;-67
2022/02/12 00:31:10;;;;;;;;;;;1.60;75.80;;;-0.36;75.84;97569.91;4932431;29;20335;-65
2022/02/12 00:33:35;;;;;;;;;;;1.60;75.90;;;-0.38;75.94;97557.06;4949854;28;19944;-66
2022/02/12 00:36:01;;;;;;;;;;;1.60;76.10;;;-0.36;75.94;97564.72;4948043;28;19933;-67
2022/02/12 00:38:27;;;;;;;;;;;1.60;75.90;;;-0.40;75.84;97563.25;4947791;28;19967;-66
2022/02/12 00:40:52;;;;;;;;;;;1.60;75.90;;;-0.41;76.05;97566.75;4951180;28;19961;-66
2022/02/12 00:43:18;;;;;;;;;;;1.50;75.90;;;-0.50;75.99;97541.38;4949059;28;19941;-66
2022/02/12 00:45:46;;;;;;;;;;;1.50;75.90;;;-0.46;75.62;97551.47;4949105;28;19973;-65
2022/02/12 00:48:12;;;;;;;;;;;1.50;75.90;;;-0.46;76.12;97558.38;4948184;28;20060;-66
2022/02/12 00:50:38;;;;;;;;;;;1.40;75.90;;;-0.47;75.23;97556.72;4948581;28;19922;-66
2022/02/12 00:53:03;;;;;;;;;;;1.40;75.90;;;-0.53;75.33;97551.91;4928971;29;19934;-66
2022/02/12 00:55:29;;;;;;;;;;;1.30;76.10;;;-0.54;75.12;97550.25;4933148;29;19919;-66
2022/02/12 00:57:55;;;;;;;;;;;1.30;76.10;;;-0.57;75.68;97551.25;4956244;23;19926;-67
2022/02/12 01:00:20;;;;;;;;;;;1.30;76.30;;;-0.63;76.31;97552.41;4980361;28;20382;-67
2022/02/12 01:02:47;;;;;;;;;;;1.30;76.20;;;-0.64;76.05;97553.34;4984311;28;19949;-67
2022/02/12 01:05:12;;;;;;;;;;;1.30;76.00;;;-0.65;75.75;97546.50;4985135;28;20274;-67
2022/02/12 01:07:38;;;;;;;;;;;1.30;75.90;;;-0.68;76.04;97544.09;4980039;28;19925;-67
2022/02/12 01:10:04;;;;;;;;;;;1.30;75.90;;;-0.70;76.27;97539.91;4947537;28;19985;-67
2022/02/12 01:12:30;;;;;;;;;;;1.20;76.00;;;-0.70;76.04;97540.72;4967900;28;19981;-67
2022/02/12 01:14:56;;;;;;;;;;;1.20;76.10;;;-0.70;75.75;97545.91;4951210;28;19918;-67
2022/02/12 01:17:21;;;;;;;;;;;1.20;75.90;;;-0.72;75.57;97547.75;4966091;28;19922;-67
2022/02/12 01:19:49;;;;;;;;;;;1.20;75.80;;;-0.73;75.29;97555.56;4977795;28;19928;-68
2022/02/12 01:22:16;;;;;;;;;;;1.10;75.70;;;-0.76;75.61;97551.41;4967180;28;20058;-67
2022/02/12 01:24:42;;;;;;;;;;;1.10;75.80;;;-0.78;76.66;97547.25;4967742;28;19961;-66
2022/02/12 01:27:08;;;;;;;;;;;1.10;75.70;;;-0.79;76.01;97538.66;4964128;28;19970;-68
2022/02/12 01:29:34;;;;;;;;;;;1.10;75.90;;;-0.81;75.95;97545.66;4969152;28;19965;-67
2022/02/12 01:32:04;;;;;;;;;;;1.10;75.90;;;-0.82;75.78;97540.59;4964957;28;19918;-67
2022/02/12 01:34:33;;;;;;;;;;;1.10;75.80;;;-0.83;75.58;97541.50;4981273;28;20314;-67
2022/02/12 01:37:00;;;;;;;;;;;1.10;75.90;;;-0.88;75.86;97535.75;4966654;28;19918;-67
2022/02/12 01:39:26;;;;;;;;;;;1.00;76.20;;;-0.89;75.32;97540.09;4962189;28;19945;-67
2022/02/12 01:41:53;;;;;;;;;;;1.00;76.20;;;-0.94;75.50;97537.72;4967457;28;20387;-67
2022/02/12 01:44:31;;;;;;;;;;;0.90;76.20;;;-0.98;75.58;97531.06;4965377;28;19918;-67
2022/02/12 01:46:56;;;;;;;;;;;0.80;76.30;;;-1.00;75.53;97526.91;4953197;28;20505;-67
2022/02/12 01:49:22;;;;;;;;;;;0.90;76.40;;;-1.01;75.61;97533.00;4950359;28;19925;-67
2022/02/12 01:51:48;;;;;;;;;;;0.90;76.40;;;-1.03;76.15;97520.16;4948882;28;19918;-67
2022/02/12 01:54:13;;;;;;;;;;;0.90;76.40;;;-1.03;76.27;97521.91;4966404;28;20405;-66
2022/02/12 01:56:39;;;;;;;;;;;0.90;76.40;;;-1.04;76.36;97520.25;4970094;28;20302;-67
2022/02/12 01:59:04;;;;;;;;;;;0.90;76.60;;;-1.07;76.11;97515.25;4968331;28;19917;-67
2022/02/12 02:01:30;;;;;;;;;;;0.80;76.50;;;-1.12;75.99;97517.25;4982668;28;19922;-67
2022/02/12 02:03:57;;;;;;;;;;;0.70;76.90;;;-1.11;76.55;97513.75;4967650;28;20356;-67
2022/02/12 02:06:23;;;;;;;;;;;0.80;76.70;;;-1.14;76.20;97513.91;4964923;28;20005;-67
2022/02/12 02:08:48;;;;;;;;;;;0.80;76.80;;;-1.14;76.49;97513.91;4966324;28;19918;-67
2022/02/12 02:11:15;;;;;;;;;;;0.80;76.60;;;-1.14;76.65;97519.06;4949290;28;19999;-66
2022/02/12 02:13:41;;;;;;;;;;;0.80;76.70;;;-1.15;76.25;97507.06;4967690;28;20090;-67
2022/02/12 02:16:13;;;;;;;;;;;0.80;76.60;;;-1.17;76.47;97504.56;4965010;28;19925;-66
2022/02/12 02:18:39;;;;;;;;;;;0.80;76.60;;;-1.16;76.48;97505.41;4965297;28;19925;-66
2022/02/12 02:21:06;;;;;;;;;;;0.80;76.40;;;-1.17;76.80;97498.56;4961837;28;19922;-66
2022/02/12 02:23:35;;;;;;;;;;;0.80;76.20;;;-1.19;76.41;97496.06;4966999;28;19922;-66
2022/02/12 02:26:02;;;;;;;;;;;0.70;76.30;;;-1.19;76.33;97496.06;4944924;28;19918;-66
2022/02/12 02:28:27;;;;;;;;;;;0.80;76.50;;;-1.19;76.49;97492.66;4942390;28;20132;-66
2022/02/12 02:30:53;;;;;;;;;;;0.70;76.40;;;-1.19;76.01;97492.66;4965878;28;20393;-67
2022/02/12 02:33:18;;;;;;;;;;;0.80;76.20;;;-1.20;76.04;97493.56;4966313;28;19918;-66
2022/02/12 02:35:45;;;;;;;;;;;0.80;76.20;;;-1.23;76.15;97500.56;4965326;28;19922;-67
2022/02/12 02:38:13;;;;;;;;;;;0.60;76.70;;;-1.26;76.38;97494.75;4944652;28;19918;-67
2022/02/12 02:40:39;;;;;;;;;;;0.60;77.20;;;-1.27;76.48;97498.25;4965522;28;19935;-66
2022/02/12 02:43:05;;;;;;;;;;;0.60;77.00;;;-1.28;76.16;97500.00;4964227;28;19922;-66
2022/02/12 02:45:30;;;;;;;;;;;0.60;76.90;;;-1.29;76.82;97495.75;4950588;28;19922;-66
2022/02/12 02:48:00;;;;;;;;;;;0.60;76.90;;;-1.30;76.63;97490.66;4966263;28;19924;-67
2022/02/12 02:56:00;;;;;;;;;;;0.60;76.70;;;-1.35;76.59;97493.50;4964882;28;19929;-66
2022/02/12 02:58:36;;;;;;;;;;;0.60;76.40;;;-1.34;76.85;97487.41;4963185;28;19961;-66
2022/02/12 03:01:03;;;;;;;;;;;0.60;76.50;;;-1.34;76.09;97487.41;4948677;28;20381;-66
2022/02/12 03:03:32;;;;;;;;;;;0.60;76.20;;;-1.35;75.67;97490.91;4949821;28;19978;-66
2022/02/12 03:05:58;;;;;;;;;;;0.60;76.30;;;-1.38;76.23;97485.06;4960569;28;20012;-66
2022/02/12 03:08:27;;;;;;;;;;;0.50;76.80;;;-1.39;76.12;97484.22;4980694;28;19918;-66
2022/02/12 03:10:53;;;;;;;;;;;0.50;76.70;;;-1.41;76.91;97477.47;4965687;28;20287;-66
2022/02/12 03:13:19;;;;;;;;;;;0.50;76.70;;;-1.43;77.17;97472.41;4965138;28;19965;-66
2022/02/12 03:15:45;;;;;;;;;;;0.50;76.50;;;-1.45;76.64;97463.09;4966789;28;19937;-67
2022/02/12 03:18:10;;;;;;;;;;;0.50;76.70;;;-1.46;77.06;97472.56;4946789;28;20409;-67
2022/02/12 03:20:36;;;;;;;;;;;0.50;76.70;;;-1.47;76.99;97468.31;4966721;28;20054;-66
2022/02/12 03:23:02;;;;;;;;;;;0.50;76.80;;;-1.45;76.90;97457.91;4948919;28;19924;-66
2022/02/12 03:25:28;;;;;;;;;;;0.50;76.70;;;-1.48;76.83;97464.09;4962712;28;20457;-66
2022/02/12 03:27:57;;;;;;;;;;;0.50;76.60;;;-1.49;76.52;97452.09;4932049;28;19988;-66
2022/02/12 03:30:27;;;;;;;;;;;0.40;76.70;;;-1.50;77.08;97460.75;4963786;28;19926;-66
2022/02/12 03:32:52;;;;;;;;;;;0.50;77.00;;;-1.49;76.72;97457.25;4979695;28;20374;-66
2022/02/12 03:35:18;;;;;;;;;;;0.50;76.90;;;-1.47;77.03;97470.91;4960812;28;19918;-66
2022/02/12 03:37:44;;;;;;;;;;;0.50;77.00;;;-1.47;76.69;97470.91;4963654;28;19926;-67
2022/02/12 03:40:13;;;;;;;;;;;0.50;76.80;;;-1.49;76.48;97472.75;4964181;28;20024;-67
2022/02/12 03:42:39;;;;;;;;;;;0.50;76.70;;;-1.51;76.66;97463.41;4942916;28;19966;-69
2022/02/12 03:45:05;;;;;;;;;;;0.40;76.60;;;-1.52;76.77;97465.16;4947994;28;19921;-66
2022/02/12 03:47:31;;;;;;;;;;;0.40;76.50;;;-1.56;76.39;97461.91;4966249;28;19918;-67
2022/02/12 03:49:57;;;;;;;;;;;0.40;76.60;;;-1.58;76.37;97452.59;4980900;28;19964;-67
2022/02/12 03:52:22;;;;;;;;;;;0.40;76.60;;;-1.60;76.71;97460.38;4961491;28;19918;-67
2022/02/12 03:54:48;;;;;;;;;;;0.40;76.60;;;-1.63;76.38;97454.56;4960619;28;20367;-67
2022/02/12 03:57:14;;;;;;;;;;;0.30;76.40;;;-1.64;76.58;97458.06;4945994;28;19922;-66
2022/02/12 03:59:39;;;;;;;;;;;0.30;76.40;;;-1.66;76.53;97445.25;4949688;28;20385;-67
2022/02/12 04:02:05;;;;;;;;;;;0.20;76.40;;;-1.67;76.39;97442.75;4948135;28;19922;-67
2022/02/12 04:04:32;;;;;;;;;;;0.30;76.30;;;-1.71;76.60;97452.41;4964860;28;19918;-67
2022/02/12 04:06:58;;;;;;;;;;;0.20;76.40;;;-1.74;77.40;97449.16;4977294;28;19926;-67
2022/02/12 04:09:23;;;;;;;;;;;0.20;77.00;;;-1.77;77.59;97447.56;4982235;28;21816;-67
2022/02/12 04:11:49;;;;;;;;;;;0.20;77.40;;;-1.76;77.81;97448.41;4933034;28;19918;-67
2022/02/12 04:14:15;;;;;;;;;;;0.20;77.70;;;-1.78;77.86;97442.50;4966985;28;19918;-67
2022/02/12 04:16:40;;;;;;;;;;;0.20;77.60;;;-1.80;78.31;97446.91;4968668;28;19922;-67
2022/02/12 04:19:06;;;;;;;;;;;0.20;77.70;;;-1.83;78.54;97447.03;4968064;28;19929;-67
2022/02/12 04:21:32;;;;;;;;;;;0.20;77.80;;;-1.83;78.05;97447.03;4967889;28;20637;-66
2022/02/12 04:23:57;;;;;;;;;;;0.20;77.80;;;-1.83;78.04;97444.44;4965875;28;19918;-66
2022/02/12 04:26:23;;;;;;;;;;;0.10;77.80;;;-1.83;78.82;97437.53;4962776;28;20453;-72
2022/02/12 04:28:49;;;;;;;;;;;0.10;78.10;;;-1.83;78.67;97447.84;4956065;28;19925;-73
2022/02/12 04:31:15;;;;;;;;;;;0.20;78.20;;;-1.86;78.64;97433.38;4940516;28;19950;-68
2022/02/12 04:33:40;;;;;;;;;;;0.10;78.40;;;-1.86;78.89;97432.56;4971142;28;20322;-70
2022/02/12 04:36:06;;;;;;;;;;;0.20;78.40;;;-1.85;78.34;97429.88;4952971;28;19926;-71
2022/02/12 04:38:32;;;;;;;;;;;0.20;78.30;;;-1.86;79.18;97427.41;4969093;28;19918;-67
2022/02/12 04:40:57;;;;;;;;;;;0.10;78.20;;;-1.88;78.93;97422.31;4970565;28;20354;-67
2022/02/12 04:43:23;;;;;;;;;;;0.10;78.50;;;-1.89;79.29;97418.06;4978053;28;19945;-67
2022/02/12 04:45:49;;;;;;;;;;;0.10;78.50;;;-1.89;78.61;97422.41;4966987;28;19918;-67
2022/02/12 04:48:14;;;;;;;;;;;0.10;78.40;;;-1.92;79.17;97415.66;4969995;28;19940;-66
2022/02/12 04:50:40;;;;;;;;;;;0.10;78.60;;;-1.94;79.02;97409.75;4970405;28;20384;-67
2022/02/12 04:53:06;;;;;;;;;;;0.10;78.70;;;-1.94;79.04;97409.75;4951782;28;19921;-67
2022/02/12 04:55:31;;;;;;;;;;;0.10;78.70;;;-1.97;79.02;97409.91;4969530;28;20372;-67
2022/02/12 04:57:57;;;;;;;;;;;0.10;78.70;;;-1.98;78.86;97397.94;4982246;28;20018;-66
2022/02/12 05:00:23;;;;;;;;;;;0.10;78.80;;;-1.99;79.41;97404.00;4970841;28;19929;-67
2022/02/12 05:02:48;;;;;;;;;;;0.10;78.60;;;-1.98;79.19;97397.09;4971643;28;19918;-67
2022/02/12 05:05:14;;;;;;;;;;;0.10;78.50;;;-1.99;78.93;97396.28;4970001;28;20270;-67
2022/02/12 05:07:42;;;;;;;;;;;0.10;78.60;;;-1.99;78.32;97396.28;4970418;28;19924;-66
2022/02/12 05:10:08;;;;;;;;;;;0.10;78.50;;;-2.01;79.02;97403.25;4985412;28;19984;-66
2022/02/12 05:12:34;;;;;;;;;;;0.10;78.50;;;-2.01;78.96;97408.41;4970357;28;19922;-67
2022/02/12 05:15:00;;;;;;;;;;;0.00;78.60;;;-2.04;79.00;97402.56;4953779;28;19924;-69
2022/02/12 05:17:26;;;;;;;;;;;0.00;78.60;;;-2.04;79.12;97398.22;4960734;28;20409;-67
2022/02/12 05:19:51;;;;;;;;;;;0.00;78.70;;;-2.07;78.58;97398.41;4982814;28;19925;-67
2022/02/12 05:22:17;;;;;;;;;;;0.00;78.40;;;-2.08;78.79;97395.91;4968530;28;19940;-66
2022/02/12 05:24:43;;;;;;;;;;;0.00;78.50;;;-2.08;79.09;97396.72;4953592;28;19918;-67
2022/02/12 05:27:09;;;;;;;;;;;0.00;78.50;;;-2.09;79.08;97397.66;4970520;28;19926;-68
2022/02/12 05:29:35;;;;;;;;;;;0.00;78.60;;;-2.09;79.14;97389.91;4986170;28;19930;-71
2022/02/12 05:32:02;;;;;;;;;;;0.00;78.80;;;-2.10;79.31;97387.41;4951863;28;19922;-68
2022/02/12 05:34:27;;;;;;;;;;;0.00;79.10;;;-2.11;79.82;97390.91;4982508;28;19914;-68
2022/02/12 05:36:54;;;;;;;;;;;0.00;79.10;;;-2.10;79.91;97392.56;4985235;28;19924;-69
2022/02/12 05:39:20;;;;;;;;;;;0.00;79.10;;;-2.10;79.93;97395.97;4962575;28;19914;-69
2022/02/12 05:41:45;;;;;;;;;;;0.00;79.30;;;-2.12;79.81;97390.06;4970546;28;19922;-69
2022/02/12 05:44:11;;;;;;;;;;;0.00;79.30;;;-2.11;79.86;97391.75;4986148;28;19925;-69
2022/02/12 05:46:37;;;;;;;;;;;0.00;79.30;;;-2.10;79.61;97388.25;4983310;28;19925;-69
2022/02/12 05:49:03;;;;;;;;;;;0.00;79.20;;;-2.08;80.10;97386.41;4967026;28;19933;-69
2022/02/12 05:51:31;;;;;;;;;;;0.00;79.20;;;-2.08;79.46;97386.41;4952594;28;20309;-70
2022/02/12 05:54:00;;;;;;;;;;;0.00;79.20;;;-2.08;80.06;97386.41;4952061;28;19921;-70
2022/02/12 05:56:26;;;;;;;;;;;0.00;79.10;;;-2.07;79.98;97382.94;4969787;28;19922;-70
2022/02/12 05:58:52;;;;;;;;;;;0.00;78.90;;;-2.08;79.57;97378.69;4969903;28;19917;-68
2022/02/12 06:01:18;;;;;;;;;;;0.00;78.90;;;-2.09;78.75;97379.59;4986474;28;20376;-69
2022/02/12 06:03:43;;;;;;;;;;;0.00;78.60;;;-2.11;79.63;97373.69;4986480;28;19924;-70
2022/02/12 06:06:09;;;;;;;;;;;0.00;78.60;;;-2.14;79.06;97371.28;4985234;28;19940;-69
2022/02/12 06:08:35;;;;;;;;;;;0.00;78.50;;;-2.16;79.16;97373.09;4970283;28;19920;-69
2022/02/12 06:11:03;;;;;;;;;;;0.00;78.70;;;-2.19;79.89;97375.84;4969743;28;19921;-68
2022/02/12 06:13:29;;;;;;;;;;;0.00;78.70;;;-2.18;79.51;97372.34;4970071;28;19914;-68
2022/02/12 06:15:54;;;;;;;;;;;0.00;78.70;;;-2.16;79.91;97368.78;4965719;28;19937;-70
2022/02/12 06:18:20;;;;;;;;;;;0.00;79.40;;;-2.15;81.10;97369.63;4951563;28;19925;-68
2022/02/12 06:20:46;;;;;;;;;;;0.00;80.40;;;-2.14;81.26;97366.13;4950514;28;19918;-68
2022/02/12 06:23:11;;;;;;;;;;;0.00;80.20;;;-2.13;81.68;97372.94;4918721;29;19914;-68
2022/02/12 06:25:37;;;;;;;;;;;0.00;80.80;;;-2.09;82.27;97364.13;4929978;28;19960;-68
2022/02/12 06:28:04;;;;;;;;;;;0.00;81.10;;;-2.05;81.14;97370.78;4968954;28;19926;-69
2022/02/12 06:30:31;;;;;;;;;;;0.10;80.60;;;-2.04;80.56;97367.28;4971020;28;19992;-69
2022/02/12 06:32:59;;;;;;;;;;;0.10;79.90;;;-2.04;80.42;97364.72;4969574;28;20052;-69
2022/02/12 06:35:28;;;;;;;;;;;0.10;79.60;;;-2.04;80.61;97361.31;4953219;28;19997;-68
2022/02/12 06:37:55;;;;;;;;;;;0.10;79.60;;;-2.05;80.65;97370.78;4969489;28;19922;-69
2022/02/12 06:40:21;;;;;;;;;;;0.10;79.50;;;-2.06;80.73;97365.72;4952863;28;20006;-69
2022/02/12 06:42:49;;;;;;;;;;;0.00;79.40;;;-2.08;80.60;97360.63;4969477;28;19914;-69
2022/02/12 06:45:18;;;;;;;;;;;0.00;79.40;;;-2.07;80.83;97351.16;4953405;28;19950;-69
2022/02/12 06:47:43;;;;;;;;;;;0.00;79.60;;;-2.05;80.74;97355.31;4969302;28;19914;-69
2022/02/12 06:50:09;;;;;;;;;;;0.10;79.60;;;-2.02;81.00;97362.09;4965449;28;19918;-69
2022/02/12 06:52:35;;;;;;;;;;;0.10;79.50;;;-1.99;81.31;97370.50;4950074;28;20004;-69
2022/02/12 06:55:00;;;;;;;;;;;0.20;79.70;;;-1.95;81.01;97361.69;4971509;28;19917;-68
2022/02/12 06:57:26;;;;;;;;;;;0.20;79.60;;;-1.94;80.71;97363.34;4969088;28;20002;-69
2022/02/12 06:59:52;;;;;;;;;;;0.20;79.50;;;-1.90;81.02;97370.00;4982524;28;20310;-69
2022/02/12 07:02:18;;;;;;;;;;;0.20;79.40;;;-1.87;80.91;97369.81;4957644;28;19918;-69
2022/02/12 07:04:44;;;;;;;;;;;0.30;79.50;;;-1.85;81.16;97373.16;4982417;28;20314;-69
2022/02/12 07:07:10;;;;;;;;;;;0.40;79.50;;;-1.81;81.53;97379.00;4969106;28;20317;-69
2022/02/12 07:09:35;;;;;;;;;;;0.40;79.60;;;-1.75;81.35;97380.41;4984523;28;19953;-69
2022/02/12 07:12:01;;;;;;;;;;;0.50;79.50;;;-1.70;81.63;97370.69;4950655;28;19929;-69
2022/02/12 07:14:27;;;;;;;;;;;0.60;79.50;;;-1.63;81.50;97374.59;4966395;28;19921;-69
2022/02/12 07:16:52;;;;;;;;;;;0.70;79.30;;;-1.54;81.58;97376.69;4970346;28;19914;-69
2022/02/12 07:19:18;;;;;;;;;;;0.80;79.30;;;-1.46;80.90;97384.84;4969993;28;20255;-69
2022/02/12 07:21:44;;;;;;;;;;;0.90;78.90;;;-1.42;80.74;97381.16;4948918;28;20022;-69
2022/02/12 07:24:10;;;;;;;;;;;0.90;78.40;;;-1.35;80.10;97372.19;4968170;28;20006;-69
2022/02/12 07:26:35;;;;;;;;;;;1.10;77.50;;;-1.28;79.75;97367.50;4938227;28;19918;-69
2022/02/12 07:29:01;;;;;;;;;;;1.20;76.90;;;-1.15;79.67;97365.06;4967602;28;20537;-69
2022/02/12 07:31:27;;;;;;;;;;;1.60;76.20;;;-1.03;79.53;97364.38;4969209;28;19926;-69
2022/02/12 07:33:52;;;;;;;;;;;1.80;75.60;;;-0.91;79.11;97358.50;4951799;28;19918;-69
2022/02/12 07:36:18;;;;;;;;;;;2.00;74.40;;;-0.73;79.01;97357.47;4961895;28;20673;-68
2022/02/12 07:38:44;;;;;;;;;;;2.30;73.80;;;-0.55;78.83;97354.75;4972284;28;19989;-67
2022/02/12 07:41:11;;;;;;;;;;;2.60;72.90;;;-0.36;78.81;97350.16;4965927;28;20400;-69
2022/02/12 07:43:37;;;;;;;;;;;2.90;72.10;;;-0.18;78.07;97341.31;4971197;28;19918;-70
2022/02/12 07:46:03;;;;;;;;;;;3.20;71.30;;;0.03;77.77;97348.69;4964971;28;19918;-71
2022/02/12 07:48:28;;;;;;;;;;;3.50;70.00;;;0.23;77.18;97345.72;4964097;28;20416;-69
2022/02/12 07:50:54;;;;;;;;;;;3.80;69.00;;;0.43;77.04;97347.06;4980620;28;19997;-71
2022/02/12 07:53:20;;;;;;;;;;;4.20;67.80;;;0.64;76.16;97352.66;4977762;28;19932;-70
2022/02/12 07:55:46;;;;;;;;;;;4.50;66.70;;;0.84;76.14;97347.03;4974820;28;19961;-70
2022/02/12 07:58:12;;;;;;;;;;;4.80;65.80;;;1.05;75.04;97345.66;4971875;28;19922;-69
2022/02/12 08:00:38;;;;;;;;;;;5.10;64.50;;;1.27;74.57;97339.91;4957267;28;19918;-71
2022/02/12 08:03:03;;;;;;;;;;;5.40;63.30;;;1.43;74.47;97345.72;4956684;28;19918;-66
2022/02/12 08:05:29;;;;;;;;;;;5.60;62.40;;;1.60;73.22;97341.19;4975429;28;19925;-66
2022/02/12 08:07:55;;;;;;;;;;;5.70;61.70;;;1.74;73.22;97343.66;4954349;28;19994;-66
2022/02/12 08:13:05;;;;;;;;;;;6.10;60.50;;;2.03;71.83;97341.66;4975053;28;19925;-67
2022/02/12 08:15:31;;;;;;;;;;;6.10;59.80;;;2.17;71.56;97333.78;4972546;28;20302;-67
2022/02/12 08:17:57;;;;;;;;;;;6.30;58.90;;;2.30;71.23;97331.16;4970942;28;19922;-67
2022/02/12 08:20:22;;;;;;;;;;;6.40;58.80;;;2.47;71.24;97334.22;4953444;28;20647;-68
2022/02/12 08:22:50;;;;;;;;;;;6.70;58.30;;;2.62;71.27;97332.31;4970314;28;19928;-69
2022/02/12 08:25:15;;;;;;;;;;;7.00;58.10;;;2.81;70.93;97326.63;4935940;28;19919;-68
2022/02/12 08:27:41;;;;;;;;;;;7.10;57.70;;;2.96;70.25;97325.53;4968997;28;19969;-69
2022/02/12 08:30:07;;;;;;;;;;;7.20;56.80;;;3.13;70.20;97320.84;4987072;28;19922;-69
2022/02/12 08:32:33;;;;;;;;;;;7.30;56.80;;;3.30;69.83;97316.06;4954983;28;20404;-69
2022/02/12 08:34:59;;;;;;;;;;;7.60;56.60;;;3.49;68.96;97307.72;4938385;28;19926;-69
2022/02/12 08:37:24;;;;;;;;;;;7.60;55.50;;;3.69;68.59;97308.81;4970616;28;19922;-69
2022/02/12 08:39:50;;;;;;;;;;;7.90;55.10;;;3.85;67.67;97304.09;4971004;28;19971;-69
2022/02/12 08:42:18;;;;;;;;;;;8.10;54.40;;;4.04;67.50;97308.69;4970387;28;19984;-69
2022/02/12 08:44:43;;;;;;;;;;;8.30;53.80;;;4.21;67.52;97294.38;4970481;28;19918;-69
2022/02/12 08:47:11;;;;;;;;;;;8.50;53.00;;;4.44;66.78;97300.38;4953311;28;19933;-69
2022/02/12 08:49:37;;;;;;;;;;;8.80;52.70;;;4.65;66.31;97297.84;4986504;28;19918;-68
2022/02/12 08:52:03;;;;;;;;;;;9.10;51.50;;;4.86;66.27;97291.72;4954447;28;19929;-69
2022/02/12 08:54:28;;;;;;;;;;;9.50;51.00;;;5.13;65.58;97285.22;4955455;28;19998;-70
2022/02/12 08:56:54;;;;;;;;;;;10.00;49.80;;;5.41;64.84;97287.19;4969728;28;20382;-69
2022/02/12 08:59:20;;;;;;;;;;;10.40;48.30;;;5.67;65.39;97294.66;4986443;28;19948;-69
2022/02/12 09:01:45;;;;;;;;;;;10.90;46.90;;;5.97;63.85;97280.81;4987029;28;19921;-68
2022/02/12 09:04:11;;;;;;;;;;;11.40;45.40;;;6.26;63.99;97279.09;4970909;28;20358;-67
2022/02/12 09:06:37;;;;;;;;;;;11.90;44.50;;;6.54;62.73;97271.47;4954454;28;19917;-68
2022/02/12 09:09:04;;;;;;;;;;;12.20;43.10;;;6.83;61.71;97259.28;4970142;28;19965;-68
2022/02/12 09:11:30;;;;;;;;;;;12.70;41.90;;;7.15;61.45;97251.13;4969588;28;19918;-68
2022/02/12 09:13:56;;;;;;;;;;;13.00;41.40;;;7.44;61.29;97245.00;4984060;28;19929;-68
2022/02/12 09:16:22;;;;;;;;;;;13.10;40.20;;;7.61;60.00;97246.91;4965968;28;20110;-68
2022/02/12 09:18:48;;;;;;;;;;;13.20;40.30;;;7.86;59.58;97241.03;4983458;28;19922;-68
2022/02/12 09:21:14;;;;;;;;;;;13.50;39.50;;;8.12;58.46;97245.59;4986189;28;19941;-67
2022/02/12 09:23:40;;;;;;;;;;;13.90;39.00;;;8.40;59.29;97242.06;4971992;28;19921;-68
2022/02/12 09:26:05;;;;;;;;;;;14.20;38.30;;;8.59;58.86;97228.78;4969090;28;19918;-67
2022/02/12 09:28:31;;;;;;;;;;;14.40;37.80;;;8.76;58.50;97226.34;4969430;28;19922;-69
2022/02/12 09:30:57;;;;;;;;;;;14.80;37.60;;;9.01;58.10;97225.56;4984587;28;20353;-68
2022/02/12 09:33:22;;;;;;;;;;;15.50;36.80;;;9.28;57.46;97223.81;4981871;28;19999;-69
2022/02/12 09:35:53;;;;;;;;;;;15.90;35.20;;;9.49;56.52;97213.78;4983501;28;19914;-67
2022/02/12 09:38:19;;;;;;;;;;;16.50;33.90;;;9.65;54.95;97211.25;4973405;28;19929;-66
2022/02/12 09:40:45;;;;;;;;;;;16.80;32.70;;;9.88;55.38;97215.97;4970290;28;19962;-67
2022/02/12 09:43:10;;;;;;;;;;;17.60;32.30;;;10.13;54.32;97215.09;4983995;28;19918;-67
2022/02/12 09:45:41;;;;;;;;;;;18.10;30.60;;;10.35;53.68;97208.47;4966484;28;19918;-67
2022/02/12 09:48:09;;;;;;;;;;;18.40;29.80;;;10.59;53.43;97215.59;4964275;28;19918;-67
2022/02/12 09:50:34;;;;;;;;;;;19.30;28.50;;;10.80;51.34;97207.22;4969692;28;20416;-68
2022/02/12 09:53:00;;;;;;;;;;;19.80;28.00;;;11.13;53.20;97203.63;4969332;28;19922;-66
2022/02/12 09:55:27;;;;;;;;;;;20.80;27.10;;;11.45;51.87;97191.41;4967564;28;20302;-67
2022/02/12 09:57:52;;;;;;;;;;;21.50;25.90;;;11.83;52.76;97197.78;4952728;28;19922;-67
2022/02/12 10:00:18;;;;;;;;;;;22.10;25.00;;;12.20;51.34;97202.41;4953539;28;20088;-68
2022/02/12 10:02:46;;;;;;;;;;;22.40;24.50;;;12.70;51.17;97190.59;4953019;28;19962;-66
2022/02/12 10:05:22;;;;;;;;;;;23.30;22.90;;;13.15;49.88;97187.94;4974045;28;20019;-67
2022/02/12 10:07:49;;;;;;;;;;;23.80;22.30;;;13.53;49.11;97189.75;4965120;28;19937;-68
2022/02/12 10:10:19;;;;;;;;;;;24.70;21.50;;;14.02;50.68;97196.16;4968792;28;19926;-67
2022/02/12 10:12:45;;;;;;;;;;;25.80;21.00;;;14.50;50.28;97187.84;4969059;28;19984;-69
2022/02/12 10:15:12;;;;;;;;;;;26.60;20.20;;;14.82;48.57;97191.81;4982416;28;19919;-68
2022/02/12 10:17:52;;;;;;;;;;;26.90;19.20;;;15.25;49.61;97182.84;4971633;28;19924;-67
2022/02/12 10:20:22;;;;;;;;;;;27.80;18.60;;;15.66;47.88;97179.50;4981086;28;19925;-67
2022/02/12 10:22:48;;;;;;;;;;;28.30;18.20;;;16.17;46.92;97179.16;4968696;28;19929;-69
2022/02/12 10:25:14;;;;;;;;;;;29.60;17.20;;;16.59;47.06;97175.44;4984495;28;19918;-67
2022/02/12 10:27:39;;;;;;;;;;;29.90;16.60;;;16.86;46.67;97170.22;4985007;28;19977;-68
2022/02/12 10:30:06;;;;;;;;;;;30.10;16.30;;;17.15;45.74;97165.31;4968221;28;20354;-68
2022/02/12 10:32:31;;;;;;;;;;;30.80;15.90;;;17.60;45.31;97160.19;4969077;28;19932;-67
2022/02/12 10:34:57;;;;;;;;;;;31.70;14.90;;;17.95;46.86;97162.63;4969945;28;19918;-67
2022/02/12 10:37:23;;;;;;;;;;;31.80;14.60;;;18.27;42.54;97147.53;4985357;28;20378;-67
2022/02/12 10:39:59;;;;;;;;;;;32.30;14.60;;;18.48;43.91;97143.75;4969385;28;19930;-67
2022/02/12 10:42:29;;;;;;;;;;;31.60;14.30;;;18.80;43.26;97141.97;4969079;28;19925;-68
2022/02/12 10:44:55;;;;;;;;;;;32.60;13.80;;;19.01;40.16;97132.75;4950218;28;19919;-66
2022/02/12 10:47:21;;;;;;;;;;;32.30;13.50;;;19.11;42.11;97123.25;4981331;28;19937;-67
2022/02/12 10:49:47;;;;;;;;;;;32.70;13.90;;;19.37;41.75;97116.88;4950779;28;20009;-68
2022/02/12 10:52:13;;;;;;;;;;;33.10;13.50;;;19.46;42.06;97115.59;4977137;28;19926;-68
2022/02/12 10:54:42;;;;;;;;;;;32.70;13.60;;;19.78;41.92;97107.47;4953338;28;20440;-68
2022/02/12 10:57:08;;;;;;;;;;;33.00;13.90;;;19.92;39.60;97108.16;4953352;28;20354;-68
2022/02/12 10:59:36;;;;;;;;;;;32.70;13.60;;;20.00;40.91;97097.16;4969247;28;19926;-68
2022/02/12 11:02:06;;;;;;;;;;;32.10;14.20;;;20.13;40.96;97095.13;4952928;28;19918;-68
2022/02/12 11:04:32;;;;;;;;;;;31.60;14.40;;;19.87;38.61;97090.09;4964304;28;19925;-70
2022/02/12 11:06:57;;;;;;;;;;;30.00;15.30;;;19.51;39.61;97091.72;4965412;28;19918;-68
2022/02/12 11:09:23;;;;;;;;;;;28.30;16.30;;;19.09;39.55;97087.19;4967276;28;19918;-67
2022/02/12 11:11:49;;;;;;;;;;;27.00;17.50;;;18.59;41.25;97087.13;4956303;28;19952;-69
2022/02/12 11:14:18;;;;;;;;;;;26.60;17.70;;;18.34;41.44;97087.88;4968141;28;19965;-67
2022/02/12 11:16:43;;;;;;;;;;;26.60;17.70;;;18.12;44.06;97085.75;4952472;28;20004;-67
2022/02/12 11:19:09;;;;;;;;;;;26.80;17.80;;;18.00;41.50;97083.75;4982656;28;20611;-66
2022/02/12 11:21:37;;;;;;;;;;;27.30;17.30;;;18.10;39.17;97075.28;4957355;28;19964;-67
2022/02/12 11:24:06;;;;;;;;;;;28.30;16.50;;;18.36;40.68;97071.69;4978934;28;19917;-69
2022/02/12 11:26:45;;;;;;;;;;;29.60;15.80;;;18.44;39.70;97073.28;4958779;28;19918;-68
2022/02/12 11:29:30;;;;;;;;;;;30.00;15.00;;;18.53;43.60;97067.47;4969602;28;20437;-68